Terminal Aerodrome Forecast
Issued by NWS

Home | Current Version | Previous Version | Graphics & Text | Print | Product List | Glossary On
Versions: 1 2 3 4 5 6 7 8 9 10 11 12 13 14 15 16
000
FTUS43 KBIS 152300
TAFJMS
TAF
KJMS 152338Z 1600/1624 35022G30KT P6SM OVC015
     FM160600 34014KT P6SM OVC012
     FM161800 36008KT P6SM SCT015=

USA.gov is the U.S. government's official web portal to all federal, state and local government web resources and services.